sensor_id;sensor_type;location;lat;lon;timestamp;P1;durP1;ratioP1;P2;durP2;ratioP2
41327;SDS011;27075;47.636;-2.058;2023-01-01T00:03:34;16.75;;;6.32;;
41327;SDS011;27075;47.636;-2.058;2023-01-01T00:06:07;18.15;;;7.38;;
41327;SDS011;27075;47.636;-2.058;2023-01-01T00:08:34;19.35;;;5.75;;
41327;SDS011;27075;47.636;-2.058;2023-01-01T00:11:01;12.07;;;6.38;;
41327;SDS011;27075;47.636;-2.058;2023-01-01T00:13:27;17.70;;;6.00;;
41327;SDS011;27075;47.636;-2.058;2023-01-01T00:15:53;14.30;;;5.95;;
41327;SDS011;27075;47.636;-2.058;2023-01-01T00:18:20;14.20;;;5.93;;
41327;SDS011;27075;47.636;-2.058;2023-01-01T00:23:12;13.73;;;5.55;;
41327;SDS011;27075;47.636;-2.058;2023-01-01T00:25:38;17.85;;;5.68;;
41327;SDS011;27075;47.636;-2.058;2023-01-01T00:28:05;11.27;;;5.38;;
41327;SDS011;27075;47.636;-2.058;2023-01-01T00:30:31;19.30;;;6.95;;
41327;SDS011;27075;47.636;-2.058;2023-01-01T00:35:24;19.75;;;6.55;;
41327;SDS011;27075;47.636;-2.058;2023-01-01T00:37:50;14.80;;;6.10;;
41327;SDS011;27075;47.636;-2.058;2023-01-01T00:40:16;15.10;;;6.00;;
41327;SDS011;27075;47.636;-2.058;2023-01-01T00:42:42;21.08;;;6.07;;
41327;SDS011;27075;47.636;-2.058;2023-01-01T00:45:08;18.77;;;5.75;;
41327;SDS011;27075;47.636;-2.058;2023-01-01T00:47:35;20.50;;;5.68;;
41327;SDS011;27075;47.636;-2.058;2023-01-01T00:50:01;23.33;;;6.13;;
41327;SDS011;27075;47.636;-2.058;2023-01-01T00:54:53;15.88;;;5.20;;
41327;SDS011;27075;47.636;-2.058;2023-01-01T00:57:19;17.27;;;5.40;;
41327;SDS011;27075;47.636;-2.058;2023-01-01T00:59:45;20.23;;;5.55;;
41327;SDS011;27075;47.636;-2.058;2023-01-01T01:02:11;16.50;;;6.32;;
41327;SDS011;27075;47.636;-2.058;2023-01-01T01:04:37;12.02;;;5.28;;
41327;SDS011;27075;47.636;-2.058;2023-01-01T01:09:29;15.85;;;5.60;;
41327;SDS011;27075;47.636;-2.058;2023-01-01T01:11:55;19.13;;;5.32;;
41327;SDS011;27075;47.636;-2.058;2023-01-01T01:14:21;15.95;;;6.30;;
41327;SDS011;27075;47.636;-2.058;2023-01-01T01:16:47;26.52;;;6.40;;
41327;SDS011;27075;47.636;-2.058;2023-01-01T01:19:13;14.48;;;5.63;;
41327;SDS011;27075;47.636;-2.058;2023-01-01T01:21:43;14.25;;;5.72;;
41327;SDS011;27075;47.636;-2.058;2023-01-01T01:24:11;12.07;;;4.78;;
41327;SDS011;27075;47.636;-2.058;2023-01-01T01:26:37;11.77;;;4.38;;
41327;SDS011;27075;47.636;-2.058;2023-01-01T01:31:30;18.50;;;6.00;;
41327;SDS011;27075;47.636;-2.058;2023-01-01T01:33:56;19.85;;;5.57;;
41327;SDS011;27075;47.636;-2.058;2023-01-01T01:38:48;10.38;;;4.85;;
41327;SDS011;27075;47.636;-2.058;2023-01-01T01:41:16;15.23;;;4.75;;
41327;SDS011;27075;47.636;-2.058;2023-01-01T01:43:45;14.13;;;4.57;;
41327;SDS011;27075;47.636;-2.058;2023-01-01T01:46:12;11.07;;;5.20;;
41327;SDS011;27075;47.636;-2.058;2023-01-01T01:48:43;12.93;;;4.18;;
41327;SDS011;27075;47.636;-2.058;2023-01-01T01:51:10;10.35;;;4.85;;
41327;SDS011;27075;47.636;-2.058;2023-01-01T01:53:40;14.85;;;5.75;;
41327;SDS011;27075;47.636;-2.058;2023-01-01T01:56:09;17.25;;;5.50;;
41327;SDS011;27075;47.636;-2.058;2023-01-01T01:58:38;13.93;;;4.70;;
41327;SDS011;27075;47.636;-2.058;2023-01-01T02:05:56;17.52;;;4.70;;
41327;SDS011;27075;47.636;-2.058;2023-01-01T02:08:23;15.43;;;5.30;;
41327;SDS011;27075;47.636;-2.058;2023-01-01T02:10:50;9.45;;;4.35;;
41327;SDS011;27075;47.636;-2.058;2023-01-01T02:13:16;12.88;;;5.50;;
41327;SDS011;27075;47.636;-2.058;2023-01-01T02:18:50;19.27;;;5.10;;
41327;SDS011;27075;47.636;-2.058;2023-01-01T02:21:21;13.20;;;5.13;;
41327;SDS011;27075;47.636;-2.058;2023-01-01T02:23:57;12.20;;;5.03;;
41327;SDS011;27075;47.636;-2.058;2023-01-01T02:29:47;19.38;;;6.35;;
41327;SDS011;27075;47.636;-2.058;2023-01-01T02:31:57;13.15;;;5.13;;
41327;SDS011;27075;47.636;-2.058;2023-01-01T02:34:26;13.07;;;5.28;;
41327;SDS011;27075;47.636;-2.058;2023-01-01T02:36:53;18.65;;;4.60;;
41327;SDS011;27075;47.636;-2.058;2023-01-01T02:39:20;12.90;;;5.25;;
41327;SDS011;27075;47.636;-2.058;2023-01-01T02:41:47;15.00;;;5.65;;
41327;SDS011;27075;47.636;-2.058;2023-01-01T02:44:15;9.70;;;4.43;;
41327;SDS011;27075;47.636;-2.058;2023-01-01T02:46:42;14.85;;;6.13;;
41327;SDS011;27075;47.636;-2.058;2023-01-01T02:49:09;20.65;;;6.82;;
41327;SDS011;27075;47.636;-2.058;2023-01-01T02:56:47;17.90;;;5.45;;
41327;SDS011;27075;47.636;-2.058;2023-01-01T03:04:45;19.25;;;6.03;;
41327;SDS011;27075;47.636;-2.058;2023-01-01T03:07:26;17.65;;;6.15;;
41327;SDS011;27075;47.636;-2.058;2023-01-01T03:12:40;14.10;;;6.07;;
41327;SDS011;27075;47.636;-2.058;2023-01-01T03:20:20;20.73;;;7.25;;
41327;SDS011;27075;47.636;-2.058;2023-01-01T03:22:48;13.68;;;6.03;;
41327;SDS011;27075;47.636;-2.058;2023-01-01T03:25:24;16.00;;;6.50;;
41327;SDS011;27075;47.636;-2.058;2023-01-01T03:27:59;27.50;;;6.70;;
41327;SDS011;27075;47.636;-2.058;2023-01-01T03:30:27;20.52;;;7.13;;
41327;SDS011;27075;47.636;-2.058;2023-01-01T03:32:57;19.63;;;6.45;;
41327;SDS011;27075;47.636;-2.058;2023-01-01T03:35:25;15.68;;;6.15;;
41327;SDS011;27075;47.636;-2.058;2023-01-01T03:37:52;14.50;;;5.75;;
41327;SDS011;27075;47.636;-2.058;2023-01-01T03:40:19;19.25;;;6.18;;
41327;SDS011;27075;47.636;-2.058;2023-01-01T03:42:50;19.30;;;4.68;;
41327;SDS011;27075;47.636;-2.058;2023-01-01T03:47:43;13.02;;;6.00;;
41327;SDS011;27075;47.636;-2.058;2023-01-01T03:52:39;10.05;;;4.57;;
41327;SDS011;27075;47.636;-2.058;2023-01-01T03:58:17;17.02;;;5.03;;
41327;SDS011;27075;47.636;-2.058;2023-01-01T04:00:47;10.48;;;4.85;;
41327;SDS011;27075;47.636;-2.058;2023-01-01T04:05:41;9.27;;;3.40;;
41327;SDS011;27075;47.636;-2.058;2023-01-01T04:08:08;17.30;;;5.88;;
41327;SDS011;27075;47.636;-2.058;2023-01-01T04:10:36;13.77;;;4.25;;
41327;SDS011;27075;47.636;-2.058;2023-01-01T04:13:04;15.05;;;4.60;;
41327;SDS011;27075;47.636;-2.058;2023-01-01T04:15:31;16.98;;;5.00;;
41327;SDS011;27075;47.636;-2.058;2023-01-01T04:17:57;13.77;;;5.68;;
41327;SDS011;27075;47.636;-2.058;2023-01-01T04:22:49;9.07;;;4.18;;
41327;SDS011;27075;47.636;-2.058;2023-01-01T04:25:15;11.38;;;4.00;;
41327;SDS011;27075;47.636;-2.058;2023-01-01T04:27:42;9.90;;;4.65;;
41327;SDS011;27075;47.636;-2.058;2023-01-01T04:30:09;16.10;;;4.60;;
41327;SDS011;27075;47.636;-2.058;2023-01-01T04:32:36;9.02;;;4.18;;
41327;SDS011;27075;47.636;-2.058;2023-01-01T04:37:28;13.73;;;4.95;;
41327;SDS011;27075;47.636;-2.058;2023-01-01T04:39:54;14.85;;;4.45;;
41327;SDS011;27075;47.636;-2.058;2023-01-01T04:42:20;16.08;;;5.05;;
41327;SDS011;27075;47.636;-2.058;2023-01-01T04:44:46;12.20;;;4.53;;
41327;SDS011;27075;47.636;-2.058;2023-01-01T04:47:12;13.25;;;4.47;;
41327;SDS011;27075;47.636;-2.058;2023-01-01T04:52:04;18.48;;;5.20;;
41327;SDS011;27075;47.636;-2.058;2023-01-01T04:54:31;8.38;;;4.00;;
41327;SDS011;27075;47.636;-2.058;2023-01-01T04:59:23;9.35;;;4.13;;
41327;SDS011;27075;47.636;-2.058;2023-01-01T05:01:49;14.80;;;4.85;;
41327;SDS011;27075;47.636;-2.058;2023-01-01T05:06:41;9.20;;;3.95;;
41327;SDS011;27075;47.636;-2.058;2023-01-01T05:09:08;13.05;;;4.88;;
41327;SDS011;27075;47.636;-2.058;2023-01-01T05:11:34;11.00;;;4.47;;
41327;SDS011;27075;47.636;-2.058;2023-01-01T05:14:00;10.98;;;4.88;;
41327;SDS011;27075;47.636;-2.058;2023-01-01T05:18:52;11.85;;;4.80;;
41327;SDS011;27075;47.636;-2.058;2023-01-01T05:21:23;13.60;;;5.30;;
41327;SDS011;27075;47.636;-2.058;2023-01-01T05:23:53;21.38;;;6.00;;
41327;SDS011;27075;47.636;-2.058;2023-01-01T05:26:20;20.88;;;6.00;;
41327;SDS011;27075;47.636;-2.058;2023-01-01T05:28:47;15.23;;;4.75;;
41327;SDS011;27075;47.636;-2.058;2023-01-01T05:31:14;14.55;;;4.28;;
41327;SDS011;27075;47.636;-2.058;2023-01-01T05:33:41;11.75;;;5.35;;
41327;SDS011;27075;47.636;-2.058;2023-01-01T05:38:33;9.52;;;4.50;;
41327;SDS011;27075;47.636;-2.058;2023-01-01T05:43:25;12.23;;;5.15;;
41327;SDS011;27075;47.636;-2.058;2023-01-01T05:45:58;14.15;;;5.93;;
41327;SDS011;27075;47.636;-2.058;2023-01-01T05:48:25;11.95;;;4.80;;
41327;SDS011;27075;47.636;-2.058;2023-01-01T05:50:51;16.48;;;5.88;;
41327;SDS011;27075;47.636;-2.058;2023-01-01T05:53:17;13.60;;;5.60;;
41327;SDS011;27075;47.636;-2.058;2023-01-01T05:55:43;15.82;;;4.95;;
41327;SDS011;27075;47.636;-2.058;2023-01-01T05:58:09;16.17;;;5.53;;
41327;SDS011;27075;47.636;-2.058;2023-01-01T06:00:35;12.85;;;4.68;;
41327;SDS011;27075;47.636;-2.058;2023-01-01T06:03:01;19.13;;;6.05;;
41327;SDS011;27075;47.636;-2.058;2023-01-01T06:05:27;8.48;;;3.65;;
41327;SDS011;27075;47.636;-2.058;2023-01-01T06:07:53;8.15;;;3.15;;
41327;SDS011;27075;47.636;-2.058;2023-01-01T06:10:19;5.40;;;3.42;;
41327;SDS011;27075;47.636;-2.058;2023-01-01T06:12:45;10.02;;;3.70;;
41327;SDS011;27075;47.636;-2.058;2023-01-01T06:15:11;8.00;;;3.78;;
41327;SDS011;27075;47.636;-2.058;2023-01-01T06:17:37;4.97;;;3.05;;
41327;SDS011;27075;47.636;-2.058;2023-01-01T06:20:04;6.85;;;3.10;;
41327;SDS011;27075;47.636;-2.058;2023-01-01T06:22:30;5.47;;;2.97;;
41327;SDS011;27075;47.636;-2.058;2023-01-01T06:24:56;3.00;;;2.22;;
41327;SDS011;27075;47.636;-2.058;2023-01-01T06:27:22;3.90;;;1.90;;
41327;SDS011;27075;47.636;-2.058;2023-01-01T06:29:48;4.10;;;3.10;;
41327;SDS011;27075;47.636;-2.058;2023-01-01T06:32:14;5.35;;;2.38;;
41327;SDS011;27075;47.636;-2.058;2023-01-01T06:34:40;8.75;;;3.15;;
41327;SDS011;27075;47.636;-2.058;2023-01-01T06:37:06;5.85;;;2.88;;
41327;SDS011;27075;47.636;-2.058;2023-01-01T06:39:32;4.60;;;2.22;;
41327;SDS011;27075;47.636;-2.058;2023-01-01T06:41:58;6.07;;;2.60;;
41327;SDS011;27075;47.636;-2.058;2023-01-01T06:44:24;7.15;;;3.15;;
41327;SDS011;27075;47.636;-2.058;2023-01-01T06:46:50;10.07;;;2.85;;
41327;SDS011;27075;47.636;-2.058;2023-01-01T06:49:16;5.53;;;2.75;;
41327;SDS011;27075;47.636;-2.058;2023-01-01T06:51:42;4.07;;;2.67;;
41327;SDS011;27075;47.636;-2.058;2023-01-01T06:54:09;4.30;;;2.63;;
41327;SDS011;27075;47.636;-2.058;2023-01-01T06:56:35;9.32;;;3.17;;
41327;SDS011;27075;47.636;-2.058;2023-01-01T06:59:01;4.70;;;3.05;;
41327;SDS011;27075;47.636;-2.058;2023-01-01T07:06:23;16.75;;;3.70;;
41327;SDS011;27075;47.636;-2.058;2023-01-01T07:08:49;10.60;;;4.60;;
41327;SDS011;27075;47.636;-2.058;2023-01-01T07:13:41;16.25;;;5.15;;
41327;SDS011;27075;47.636;-2.058;2023-01-01T07:16:07;8.38;;;3.88;;
41327;SDS011;27075;47.636;-2.058;2023-01-01T07:21:00;10.68;;;5.13;;
41327;SDS011;27075;47.636;-2.058;2023-01-01T07:23:27;13.68;;;4.53;;
41327;SDS011;27075;47.636;-2.058;2023-01-01T07:25:53;12.30;;;4.93;;
41327;SDS011;27075;47.636;-2.058;2023-01-01T07:28:20;9.52;;;4.13;;
41327;SDS011;27075;47.636;-2.058;2023-01-01T07:30:46;13.60;;;4.80;;
41327;SDS011;27075;47.636;-2.058;2023-01-01T07:33:13;9.50;;;5.03;;
41327;SDS011;27075;47.636;-2.058;2023-01-01T07:35:40;8.25;;;4.13;;
41327;SDS011;27075;47.636;-2.058;2023-01-01T07:38:06;13.68;;;4.95;;
41327;SDS011;27075;47.636;-2.058;2023-01-01T07:42:58;7.68;;;3.95;;
41327;SDS011;27075;47.636;-2.058;2023-01-01T07:45:24;10.13;;;4.00;;
41327;SDS011;27075;47.636;-2.058;2023-01-01T07:47:52;20.63;;;6.40;;
41327;SDS011;27075;47.636;-2.058;2023-01-01T07:50:18;13.65;;;4.93;;
41327;SDS011;27075;47.636;-2.058;2023-01-01T07:52:44;14.25;;;4.43;;
41327;SDS011;27075;47.636;-2.058;2023-01-01T07:55:14;13.85;;;4.65;;
41327;SDS011;27075;47.636;-2.058;2023-01-01T07:57:41;10.57;;;4.53;;
41327;SDS011;27075;47.636;-2.058;2023-01-01T08:00:07;11.82;;;4.18;;
41327;SDS011;27075;47.636;-2.058;2023-01-01T08:02:34;10.05;;;4.38;;
41327;SDS011;27075;47.636;-2.058;2023-01-01T08:05:00;14.27;;;4.07;;
41327;SDS011;27075;47.636;-2.058;2023-01-01T08:09:52;14.18;;;4.47;;
41327;SDS011;27075;47.636;-2.058;2023-01-01T08:12:18;10.75;;;4.55;;
41327;SDS011;27075;47.636;-2.058;2023-01-01T08:14:44;13.85;;;4.88;;
41327;SDS011;27075;47.636;-2.058;2023-01-01T08:17:10;11.50;;;4.55;;
41327;SDS011;27075;47.636;-2.058;2023-01-01T08:19:36;11.02;;;4.47;;
41327;SDS011;27075;47.636;-2.058;2023-01-01T08:22:02;16.15;;;5.55;;
41327;SDS011;27075;47.636;-2.058;2023-01-01T08:24:28;9.57;;;4.10;;
41327;SDS011;27075;47.636;-2.058;2023-01-01T08:26:54;8.88;;;4.03;;
41327;SDS011;27075;47.636;-2.058;2023-01-01T08:29:20;10.23;;;3.75;;
41327;SDS011;27075;47.636;-2.058;2023-01-01T08:31:46;8.48;;;3.90;;
41327;SDS011;27075;47.636;-2.058;2023-01-01T08:36:38;9.95;;;4.70;;
41327;SDS011;27075;47.636;-2.058;2023-01-01T08:41:31;9.38;;;3.67;;
41327;SDS011;27075;47.636;-2.058;2023-01-01T08:43:57;13.45;;;4.13;;
41327;SDS011;27075;47.636;-2.058;2023-01-01T08:46:23;10.45;;;2.95;;
41327;SDS011;27075;47.636;-2.058;2023-01-01T08:48:49;12.73;;;3.92;;
41327;SDS011;27075;47.636;-2.058;2023-01-01T08:51:15;13.50;;;3.70;;
41327;SDS011;27075;47.636;-2.058;2023-01-01T08:53:41;9.38;;;4.25;;
41327;SDS011;27075;47.636;-2.058;2023-01-01T08:56:08;12.50;;;4.15;;
41327;SDS011;27075;47.636;-2.058;2023-01-01T08:58:35;6.88;;;3.55;;
41327;SDS011;27075;47.636;-2.058;2023-01-01T09:01:01;6.43;;;3.53;;
41327;SDS011;27075;47.636;-2.058;2023-01-01T09:05:54;14.52;;;3.88;;
41327;SDS011;27075;47.636;-2.058;2023-01-01T09:08:20;10.45;;;3.78;;
41327;SDS011;27075;47.636;-2.058;2023-01-01T09:10:46;10.32;;;3.47;;
41327;SDS011;27075;47.636;-2.058;2023-01-01T09:13:13;11.15;;;4.82;;
41327;SDS011;27075;47.636;-2.058;2023-01-01T09:15:40;10.98;;;4.10;;
41327;SDS011;27075;47.636;-2.058;2023-01-01T09:18:09;6.25;;;3.13;;
41327;SDS011;27075;47.636;-2.058;2023-01-01T09:20:36;11.27;;;4.85;;
41327;SDS011;27075;47.636;-2.058;2023-01-01T09:23:02;8.18;;;3.50;;
41327;SDS011;27075;47.636;-2.058;2023-01-01T09:25:28;10.40;;;3.95;;
41327;SDS011;27075;47.636;-2.058;2023-01-01T09:27:58;13.85;;;5.28;;
41327;SDS011;27075;47.636;-2.058;2023-01-01T09:30:24;8.45;;;3.42;;
41327;SDS011;27075;47.636;-2.058;2023-01-01T09:35:16;9.93;;;3.50;;
41327;SDS011;27075;47.636;-2.058;2023-01-01T09:40:56;8.48;;;3.72;;
41327;SDS011;27075;47.636;-2.058;2023-01-01T09:45:28;8.77;;;3.70;;
41327;SDS011;27075;47.636;-2.058;2023-01-01T09:48:01;9.60;;;3.75;;
41327;SDS011;27075;47.636;-2.058;2023-01-01T09:50:31;9.30;;;4.20;;
41327;SDS011;27075;47.636;-2.058;2023-01-01T09:53:00;6.60;;;2.67;;
41327;SDS011;27075;47.636;-2.058;2023-01-01T09:57:53;5.10;;;2.50;;
41327;SDS011;27075;47.636;-2.058;2023-01-01T10:00:19;8.38;;;3.33;;
41327;SDS011;27075;47.636;-2.058;2023-01-01T10:05:17;8.30;;;3.55;;
41327;SDS011;27075;47.636;-2.058;2023-01-01T10:07:51;5.65;;;3.42;;
41327;SDS011;27075;47.636;-2.058;2023-01-01T10:13:03;7.00;;;3.38;;
41327;SDS011;27075;47.636;-2.058;2023-01-01T10:15:34;4.43;;;3.28;;
41327;SDS011;27075;47.636;-2.058;2023-01-01T10:18:03;15.02;;;4.25;;
41327;SDS011;27075;47.636;-2.058;2023-01-01T10:20:41;7.55;;;3.13;;
41327;SDS011;27075;47.636;-2.058;2023-01-01T10:23:14;7.70;;;3.25;;
41327;SDS011;27075;47.636;-2.058;2023-01-01T10:25:42;9.75;;;3.53;;
41327;SDS011;27075;47.636;-2.058;2023-01-01T10:28:13;8.38;;;2.95;;
41327;SDS011;27075;47.636;-2.058;2023-01-01T10:30:40;9.85;;;2.85;;
41327;SDS011;27075;47.636;-2.058;2023-01-01T10:33:08;6.68;;;2.58;;
41327;SDS011;27075;47.636;-2.058;2023-01-01T10:35:43;8.27;;;3.08;;
41327;SDS011;27075;47.636;-2.058;2023-01-01T10:38:18;4.65;;;3.28;;
41327;SDS011;27075;47.636;-2.058;2023-01-01T10:40:45;7.82;;;2.67;;
41327;SDS011;27075;47.636;-2.058;2023-01-01T10:43:11;3.30;;;2.60;;
41327;SDS011;27075;47.636;-2.058;2023-01-01T10:50:40;7.68;;;3.50;;
41327;SDS011;27075;47.636;-2.058;2023-01-01T10:53:09;6.25;;;3.55;;
41327;SDS011;27075;47.636;-2.058;2023-01-01T10:55:47;8.93;;;3.30;;
41327;SDS011;27075;47.636;-2.058;2023-01-01T11:00:59;8.65;;;4.10;;
41327;SDS011;27075;47.636;-2.058;2023-01-01T11:03:25;4.68;;;2.95;;
41327;SDS011;27075;47.636;-2.058;2023-01-01T11:08:30;6.75;;;3.38;;
41327;SDS011;27075;47.636;-2.058;2023-01-01T11:10:57;8.13;;;3.08;;
41327;SDS011;27075;47.636;-2.058;2023-01-01T11:13:24;9.60;;;3.58;;
41327;SDS011;27075;47.636;-2.058;2023-01-01T11:15:50;7.57;;;2.58;;
41327;SDS011;27075;47.636;-2.058;2023-01-01T11:18:20;6.93;;;3.17;;
41327;SDS011;27075;47.636;-2.058;2023-01-01T11:20:53;6.07;;;2.85;;
41327;SDS011;27075;47.636;-2.058;2023-01-01T11:23:28;6.15;;;3.30;;
41327;SDS011;27075;47.636;-2.058;2023-01-01T11:26:01;9.40;;;4.15;;
41327;SDS011;27075;47.636;-2.058;2023-01-01T11:28:28;5.78;;;2.80;;
41327;SDS011;27075;47.636;-2.058;2023-01-01T11:33:24;4.43;;;3.22;;
41327;SDS011;27075;47.636;-2.058;2023-01-01T11:35:54;5.63;;;2.75;;
41327;SDS011;27075;47.636;-2.058;2023-01-01T11:38:21;5.95;;;3.40;;
41327;SDS011;27075;47.636;-2.058;2023-01-01T11:40:50;6.57;;;3.40;;
41327;SDS011;27075;47.636;-2.058;2023-01-01T11:43:20;4.43;;;3.10;;
41327;SDS011;27075;47.636;-2.058;2023-01-01T11:45:47;5.95;;;4.13;;
41327;SDS011;27075;47.636;-2.058;2023-01-01T11:50:41;5.03;;;3.05;;
41327;SDS011;27075;47.636;-2.058;2023-01-01T11:55:44;8.50;;;3.67;;
41327;SDS011;27075;47.636;-2.058;2023-01-01T11:58:14;5.40;;;2.85;;
41327;SDS011;27075;47.636;-2.058;2023-01-01T12:00:42;6.78;;;2.63;;
41327;SDS011;27075;47.636;-2.058;2023-01-01T12:08:03;4.93;;;2.58;;
41327;SDS011;27075;47.636;-2.058;2023-01-01T12:10:32;5.57;;;3.15;;
41327;SDS011;27075;47.636;-2.058;2023-01-01T12:13:05;5.10;;;3.08;;
41327;SDS011;27075;47.636;-2.058;2023-01-01T12:20:51;8.45;;;3.00;;
41327;SDS011;27075;47.636;-2.058;2023-01-01T12:23:19;4.53;;;2.83;;
41327;SDS011;27075;47.636;-2.058;2023-01-01T12:25:45;3.58;;;2.78;;
41327;SDS011;27075;47.636;-2.058;2023-01-01T12:28:18;3.88;;;2.53;;
41327;SDS011;27075;47.636;-2.058;2023-01-01T12:56:45;5.57;;;3.00;;
41327;SDS011;27075;47.636;-2.058;2023-01-01T12:59:14;4.10;;;3.50;;
41327;SDS011;27075;47.636;-2.058;2023-01-01T13:01:41;7.75;;;2.67;;
41327;SDS011;27075;47.636;-2.058;2023-01-01T13:06:39;7.10;;;3.67;;
41327;SDS011;27075;47.636;-2.058;2023-01-01T13:09:14;11.60;;;3.90;;
41327;SDS011;27075;47.636;-2.058;2023-01-01T13:11:40;4.03;;;2.63;;
41327;SDS011;27075;47.636;-2.058;2023-01-01T13:14:07;5.10;;;2.75;;
41327;SDS011;27075;47.636;-2.058;2023-01-01T13:16:34;7.18;;;3.80;;
41327;SDS011;27075;47.636;-2.058;2023-01-01T13:19:01;6.32;;;3.65;;
41327;SDS011;27075;47.636;-2.058;2023-01-01T13:23:55;4.70;;;2.80;;
41327;SDS011;27075;47.636;-2.058;2023-01-01T13:36:50;4.20;;;2.92;;
41327;SDS011;27075;47.636;-2.058;2023-01-01T13:42:01;8.93;;;3.08;;
41327;SDS011;27075;47.636;-2.058;2023-01-01T13:44:27;5.97;;;2.88;;
41327;SDS011;27075;47.636;-2.058;2023-01-01T14:04:41;6.82;;;2.88;;
41327;SDS011;27075;47.636;-2.058;2023-01-01T14:07:24;3.53;;;2.58;;
41327;SDS011;27075;47.636;-2.058;2023-01-01T14:10:06;3.40;;;2.75;;
41327;SDS011;27075;47.636;-2.058;2023-01-01T14:12:36;4.35;;;2.85;;
41327;SDS011;27075;47.636;-2.058;2023-01-01T14:15:12;3.45;;;2.67;;
41327;SDS011;27075;47.636;-2.058;2023-01-01T14:17:39;6.57;;;3.90;;
41327;SDS011;27075;47.636;-2.058;2023-01-01T14:20:06;4.82;;;3.63;;
41327;SDS011;27075;47.636;-2.058;2023-01-01T14:22:32;5.78;;;2.75;;
41327;SDS011;27075;47.636;-2.058;2023-01-01T14:24:58;2.97;;;2.35;;
41327;SDS011;27075;47.636;-2.058;2023-01-01T14:27:24;4.00;;;2.63;;
41327;SDS011;27075;47.636;-2.058;2023-01-01T14:29:52;3.42;;;2.78;;
41327;SDS011;27075;47.636;-2.058;2023-01-01T14:32:22;8.18;;;4.20;;
41327;SDS011;27075;47.636;-2.058;2023-01-01T14:34:59;4.15;;;3.17;;
41327;SDS011;27075;47.636;-2.058;2023-01-01T14:37:25;6.50;;;3.22;;
41327;SDS011;27075;47.636;-2.058;2023-01-01T14:42:17;5.97;;;3.28;;
41327;SDS011;27075;47.636;-2.058;2023-01-01T14:44:44;6.40;;;3.88;;
41327;SDS011;27075;47.636;-2.058;2023-01-01T14:49:49;4.10;;;3.38;;
41327;SDS011;27075;47.636;-2.058;2023-01-01T14:52:22;5.72;;;3.28;;
41327;SDS011;27075;47.636;-2.058;2023-01-01T14:54:49;7.20;;;4.15;;
41327;SDS011;27075;47.636;-2.058;2023-01-01T14:57:19;4.63;;;3.13;;
41327;SDS011;27075;47.636;-2.058;2023-01-01T14:59:47;5.80;;;3.75;;
41327;SDS011;27075;47.636;-2.058;2023-01-01T15:02:16;8.98;;;3.70;;
41327;SDS011;27075;47.636;-2.058;2023-01-01T15:04:44;5.07;;;3.42;;
41327;SDS011;27075;47.636;-2.058;2023-01-01T15:07:24;4.90;;;3.92;;
41327;SDS011;27075;47.636;-2.058;2023-01-01T15:09:51;7.18;;;3.83;;
41327;SDS011;27075;47.636;-2.058;2023-01-01T15:12:21;8.45;;;4.28;;
41327;SDS011;27075;47.636;-2.058;2023-01-01T15:14:48;6.53;;;4.38;;
41327;SDS011;27075;47.636;-2.058;2023-01-01T15:17:15;5.90;;;4.32;;
41327;SDS011;27075;47.636;-2.058;2023-01-01T15:19:42;7.32;;;4.38;;
41327;SDS011;27075;47.636;-2.058;2023-01-01T15:24:47;14.68;;;6.03;;
41327;SDS011;27075;47.636;-2.058;2023-01-01T15:27:47;9.82;;;4.88;;
41327;SDS011;27075;47.636;-2.058;2023-01-01T15:30:20;7.88;;;4.53;;
41327;SDS011;27075;47.636;-2.058;2023-01-01T15:32:46;7.57;;;4.93;;
41327;SDS011;27075;47.636;-2.058;2023-01-01T15:35:28;6.65;;;4.68;;
41327;SDS011;27075;47.636;-2.058;2023-01-01T15:37:57;7.85;;;4.88;;
41327;SDS011;27075;47.636;-2.058;2023-01-01T15:47:46;9.63;;;5.25;;
41327;SDS011;27075;47.636;-2.058;2023-01-01T15:50:18;9.48;;;5.28;;
41327;SDS011;27075;47.636;-2.058;2023-01-01T15:52:45;5.43;;;4.90;;
41327;SDS011;27075;47.636;-2.058;2023-01-01T15:55:13;7.80;;;4.63;;
41327;SDS011;27075;47.636;-2.058;2023-01-01T15:57:42;5.22;;;4.72;;
41327;SDS011;27075;47.636;-2.058;2023-01-01T16:00:16;7.35;;;5.10;;
41327;SDS011;27075;47.636;-2.058;2023-01-01T16:02:42;9.77;;;5.20;;
41327;SDS011;27075;47.636;-2.058;2023-01-01T16:05:15;7.60;;;4.75;;
41327;SDS011;27075;47.636;-2.058;2023-01-01T16:07:43;9.40;;;5.10;;
41327;SDS011;27075;47.636;-2.058;2023-01-01T16:10:14;7.57;;;4.80;;
41327;SDS011;27075;47.636;-2.058;2023-01-01T16:12:40;6.20;;;4.63;;
41327;SDS011;27075;47.636;-2.058;2023-01-01T16:15:06;4.75;;;4.03;;
41327;SDS011;27075;47.636;-2.058;2023-01-01T16:17:34;7.88;;;7.07;;
41327;SDS011;27075;47.636;-2.058;2023-01-01T16:20:00;19.95;;;16.50;;
41327;SDS011;27075;47.636;-2.058;2023-01-01T16:22:26;9.85;;;7.22;;
41327;SDS011;27075;47.636;-2.058;2023-01-01T16:24:52;8.13;;;6.65;;
41327;SDS011;27075;47.636;-2.058;2023-01-01T16:29:44;31.33;;;26.52;;
41327;SDS011;27075;47.636;-2.058;2023-01-01T16:32:13;12.50;;;8.88;;
41327;SDS011;27075;47.636;-2.058;2023-01-01T16:34:41;30.52;;;26.83;;
41327;SDS011;27075;47.636;-2.058;2023-01-01T16:37:07;22.13;;;19.73;;
41327;SDS011;27075;47.636;-2.058;2023-01-01T16:39:33;13.90;;;11.50;;
41327;SDS011;27075;47.636;-2.058;2023-01-01T16:41:59;15.48;;;13.32;;
41327;SDS011;27075;47.636;-2.058;2023-01-01T16:44:25;17.08;;;9.70;;
41327;SDS011;27075;47.636;-2.058;2023-01-01T16:46:51;11.23;;;9.63;;
41327;SDS011;27075;47.636;-2.058;2023-01-01T16:49:17;12.38;;;5.97;;
41327;SDS011;27075;47.636;-2.058;2023-01-01T16:51:43;20.35;;;10.85;;
41327;SDS011;27075;47.636;-2.058;2023-01-01T16:56:36;27.48;;;17.40;;
41327;SDS011;27075;47.636;-2.058;2023-01-01T16:59:02;16.00;;;13.93;;
41327;SDS011;27075;47.636;-2.058;2023-01-01T17:01:28;16.98;;;13.80;;
41327;SDS011;27075;47.636;-2.058;2023-01-01T17:03:54;17.15;;;14.15;;
41327;SDS011;27075;47.636;-2.058;2023-01-01T17:06:20;17.65;;;7.93;;
41327;SDS011;27075;47.636;-2.058;2023-01-01T17:08:46;14.05;;;12.60;;
41327;SDS011;27075;47.636;-2.058;2023-01-01T17:11:16;19.50;;;17.55;;
41327;SDS011;27075;47.636;-2.058;2023-01-01T17:13:43;29.05;;;24.33;;
41327;SDS011;27075;47.636;-2.058;2023-01-01T17:16:10;10.48;;;7.15;;
41327;SDS011;27075;47.636;-2.058;2023-01-01T17:18:36;24.17;;;20.08;;
41327;SDS011;27075;47.636;-2.058;2023-01-01T17:21:05;38.00;;;29.20;;
41327;SDS011;27075;47.636;-2.058;2023-01-01T17:23:33;39.35;;;35.08;;
41327;SDS011;27075;47.636;-2.058;2023-01-01T17:26:09;18.98;;;15.82;;
41327;SDS011;27075;47.636;-2.058;2023-01-01T17:28:36;10.52;;;6.72;;
41327;SDS011;27075;47.636;-2.058;2023-01-01T17:33:28;11.23;;;5.45;;
41327;SDS011;27075;47.636;-2.058;2023-01-01T17:35:54;14.13;;;9.18;;
41327;SDS011;27075;47.636;-2.058;2023-01-01T17:38:20;18.83;;;9.88;;
41327;SDS011;27075;47.636;-2.058;2023-01-01T17:40:46;32.42;;;25.92;;
41327;SDS011;27075;47.636;-2.058;2023-01-01T17:43:12;47.30;;;32.13;;
41327;SDS011;27075;47.636;-2.058;2023-01-01T17:45:38;27.20;;;18.23;;
41327;SDS011;27075;47.636;-2.058;2023-01-01T17:48:04;10.13;;;5.78;;
41327;SDS011;27075;47.636;-2.058;2023-01-01T17:52:56;8.77;;;4.53;;
41327;SDS011;27075;47.636;-2.058;2023-01-01T17:55:22;16.45;;;6.03;;
41327;SDS011;27075;47.636;-2.058;2023-01-01T17:57:50;17.00;;;12.48;;
41327;SDS011;27075;47.636;-2.058;2023-01-01T18:00:16;9.43;;;6.18;;
41327;SDS011;27075;47.636;-2.058;2023-01-01T18:05:08;11.23;;;4.80;;
41327;SDS011;27075;47.636;-2.058;2023-01-01T18:07:34;10.68;;;4.15;;
41327;SDS011;27075;47.636;-2.058;2023-01-01T18:10:00;17.80;;;12.00;;
41327;SDS011;27075;47.636;-2.058;2023-01-01T18:12:26;13.70;;;9.05;;
41327;SDS011;27075;47.636;-2.058;2023-01-01T18:14:52;12.80;;;6.40;;
41327;SDS011;27075;47.636;-2.058;2023-01-01T18:17:18;5.35;;;3.33;;
41327;SDS011;27075;47.636;-2.058;2023-01-01T18:19:44;4.97;;;2.67;;